createdAt,value
2023-01-25T00:04:51.671Z,103460.84
2023-01-25T00:12:25.811Z,103448.75
2023-01-25T00:20:00.990Z,103429.53
2023-01-25T00:27:35.170Z,103434.00
2023-01-25T00:35:12.819Z,103402.66
2023-01-25T00:42:46.625Z,103381.88
2023-01-25T00:50:22.322Z,103353.41
2023-01-25T00:57:56.487Z,103344.41
2023-01-25T01:05:31.661Z,103337.44
2023-01-25T01:13:05.438Z,103346.00
2023-01-25T01:20:40.614Z,103348.66
2023-01-25T01:28:14.623Z,103348.66
2023-01-25T01:35:49.741Z,103344.66
2023-01-25T01:43:25.942Z,103349.28
2023-01-25T01:51:04.384Z,103340.09
2023-01-25T01:58:38.866Z,103341.91
2023-01-25T02:06:16.500Z,103335.63
2023-01-25T02:13:50.955Z,103331.47
2023-01-25T02:21:26.588Z,103340.19
2023-01-25T02:29:05.185Z,103319.53
2023-01-25T02:36:39.363Z,103311.19
2023-01-25T02:44:18.320Z,103306.63
2023-01-25T02:51:55.921Z,103307.41
2023-01-25T02:59:31.574Z,103302.41
2023-01-25T03:07:05.660Z,103302.97
2023-01-25T03:14:40.780Z,103294.13
2023-01-25T03:22:14.887Z,103285.03
2023-01-25T03:29:50.061Z,103282.81
2023-01-25T03:37:23.991Z,103275.19
2023-01-25T03:44:59.140Z,103273.72
2023-01-25T03:52:38.506Z,103266.09
2023-01-25T04:00:14.603Z,103260.19
2023-01-25T04:07:48.812Z,103244.66
2023-01-25T04:15:23.979Z,103232.50
2023-01-25T04:22:57.873Z,103220.41
2023-01-25T04:30:33.055Z,103204.84
2023-01-25T04:38:07.121Z,103205.66
2023-01-25T04:45:42.815Z,103198.00
2023-01-25T04:53:16.960Z,103192.59
2023-01-25T05:00:52.059Z,103175.84
2023-01-25T05:08:27.984Z,103181.94
2023-01-25T05:16:03.112Z,103177.97
2023-01-25T05:23:36.841Z,103164.00
2023-01-25T05:31:12.027Z,103167.69
2023-01-25T05:38:46.150Z,103158.06
2023-01-25T05:46:21.588Z,103156.25
2023-01-25T05:53:55.775Z,103163.88
2023-01-25T06:01:31.160Z,103158.34
2023-01-25T06:09:05.089Z,103148.44
2023-01-25T06:16:40.420Z,103146.59
2023-01-25T06:24:14.502Z,103143.69
2023-01-25T06:31:49.846Z,103147.75
2023-01-25T06:39:23.724Z,103147.63
2023-01-25T06:46:59.148Z,103147.91
2023-01-25T06:54:33.164Z,103139.34
2023-01-25T07:02:08.419Z,103109.31
2023-01-25T07:09:42.729Z,103100.31
2023-01-25T07:17:18.206Z,103112.47
2023-01-25T07:24:53.928Z,103093.91
2023-01-25T07:32:29.144Z,103090.47
2023-01-25T07:40:03.043Z,103085.47
2023-01-25T07:47:38.272Z,103072.41
2023-01-25T07:55:12.553Z,103072.91
2023-01-25T08:02:50.625Z,103060.28
2023-01-25T08:10:26.011Z,103064.38
2023-01-25T08:18:02.018Z,103054.06
2023-01-25T08:25:35.835Z,103047.78
2023-01-25T08:33:11.058Z,103043.69
2023-01-25T08:40:45.182Z,103042.25
2023-01-25T08:48:20.419Z,103043.94
2023-01-25T08:55:54.216Z,103035.38
2023-01-25T09:03:29.388Z,103036.44
2023-01-25T09:11:04.845Z,103034.75
2023-01-25T09:18:44.638Z,103032.25
2023-01-25T09:26:18.978Z,103031.56
2023-01-25T09:33:54.177Z,103023.00
2023-01-25T09:41:47.684Z,103018.16
2023-01-25T09:49:44.455Z,103006.13
2023-01-25T09:57:22.203Z,103001.81
2023-01-25T10:05:03.956Z,103001.13
2023-01-25T10:12:39.928Z,102989.03
2023-01-25T10:20:33.847Z,102981.66
2023-01-25T10:28:23.075Z,102970.59
2023-01-25T10:36:02.258Z,102959.28
2023-01-25T10:43:36.285Z,102939.91
2023-01-25T10:51:28.990Z,102943.19
2023-01-25T10:59:16.484Z,102923.31
2023-01-25T11:06:52.604Z,102914.38
2023-01-25T11:14:29.827Z,102902.25
2023-01-25T11:22:07.604Z,102897.75
2023-01-25T11:29:41.721Z,102875.00
2023-01-25T11:37:42.256Z,102863.13
2023-01-25T11:45:52.462Z,102840.75
2023-01-25T11:54:04.783Z,102828.25
2023-01-25T12:01:49.473Z,102800.06
2023-01-25T12:09:33.187Z,102790.72
2023-01-25T12:17:24.605Z,102764.94
2023-01-25T12:25:11.309Z,102743.34
2023-01-25T12:32:53.844Z,102727.94
2023-01-25T12:40:44.629Z,102722.66
2023-01-25T12:48:23.844Z,102705.63
2023-01-25T12:56:00.109Z,102707.00
2023-01-25T13:03:41.032Z,102689.22
2023-01-25T13:11:20.714Z,102687.75
2023-01-25T13:18:55.140Z,102679.34
2023-01-25T13:26:48.603Z,102675.78
2023-01-25T13:34:59.140Z,102659.34
2023-01-25T13:42:36.927Z,102652.34
2023-01-25T13:50:21.954Z,102634.03
2023-01-25T13:58:16.146Z,102625.38
2023-01-25T14:05:52.444Z,102623.50
2023-01-25T14:13:27.735Z,102612.19
2023-01-25T14:21:14.816Z,102607.84
2023-01-25T14:29:01.027Z,102599.31
2023-01-25T14:36:36.205Z,102591.00
2023-01-25T14:44:15.521Z,102587.72
2023-01-25T14:51:51.808Z,102567.66
2023-01-25T14:59:32.170Z,102555.69
2023-01-25T15:07:17.750Z,102548.47
2023-01-25T15:14:57.327Z,102540.59
2023-01-25T15:22:32.572Z,102531.72
2023-01-25T15:30:13.576Z,102528.13
2023-01-25T15:37:49.382Z,102523.47
2023-01-25T15:45:25.061Z,102513.31
2023-01-25T15:52:59.021Z,102509.75
2023-01-25T16:00:38.228Z,102500.34
2023-01-25T16:08:16.816Z,102501.25
2023-01-25T16:15:55.001Z,102471.53
2023-01-25T16:23:29.041Z,102474.03
2023-01-25T16:31:04.272Z,102448.59
2023-01-25T16:38:38.042Z,102453.28
2023-01-25T16:46:17.664Z,102445.81
2023-01-25T16:53:54.107Z,102441.00
2023-01-25T17:01:29.617Z,102420.97
2023-01-25T17:09:20.543Z,102408.97
2023-01-25T17:16:57.159Z,102410.69
2023-01-25T17:24:31.027Z,102400.75
2023-01-25T17:32:06.722Z,102391.25
2023-01-25T17:39:40.438Z,102392.59
2023-01-25T17:47:15.766Z,102383.63
2023-01-25T17:54:49.611Z,102370.34
2023-01-25T18:02:24.714Z,102368.41
2023-01-25T18:09:58.638Z,102352.63
2023-01-25T18:17:36.156Z,102356.66
2023-01-25T18:25:29.816Z,102338.13
2023-01-25T18:33:05.605Z,102343.28
2023-01-25T18:40:40.227Z,102343.03
2023-01-25T18:48:19.743Z,102343.69
2023-01-25T18:56:01.149Z,102321.75
2023-01-25T19:03:36.238Z,102318.44
2023-01-25T19:11:14.350Z,102296.56
2023-01-25T19:18:52.047Z,102290.19
2023-01-25T19:26:27.102Z,102283.88
2023-01-25T19:34:03.867Z,102274.81
2023-01-25T19:41:39.055Z,102261.03
2023-01-25T19:49:15.109Z,102252.66
2023-01-25T19:56:50.225Z,102242.16
2023-01-25T20:04:25.807Z,102214.81
2023-01-25T20:12:00.725Z,102207.03
2023-01-25T20:19:37.169Z,102209.88
2023-01-25T20:27:10.893Z,102199.03
2023-01-25T20:34:46.668Z,102197.44
2023-01-25T20:42:20.539Z,102205.97
2023-01-25T20:49:55.667Z,102188.59
2023-01-25T20:57:29.540Z,102193.53
2023-01-25T21:05:05.137Z,102195.91
2023-01-25T21:12:39.895Z,102200.00
2023-01-25T21:20:15.441Z,102185.84
2023-01-25T21:27:49.912Z,102178.09
2023-01-25T21:35:25.179Z,102161.38
2023-01-25T21:42:58.858Z,102149.84
2023-01-25T21:50:51.383Z,102143.34
2023-01-25T21:58:25.461Z,102143.09
2023-01-25T22:06:00.579Z,102145.94
2023-01-25T22:13:34.850Z,102139.34
2023-01-25T22:21:16.593Z,102138.53
2023-01-25T22:28:52.422Z,102121.94
2023-01-25T22:36:28.962Z,102123.34
2023-01-25T22:44:02.703Z,102108.91
2023-01-25T22:51:37.835Z,102107.34
2023-01-25T22:59:14.901Z,102092.34
2023-01-25T23:06:50.273Z,102093.16
2023-01-25T23:14:41.553Z,102089.16
2023-01-25T23:22:16.731Z,102076.44
2023-01-25T23:29:51.776Z,102070.53
2023-01-25T23:37:28.188Z,102074.84
2023-01-25T23:45:02.062Z,102060.25
2023-01-25T23:52:37.786Z,102055.88
